Oostende, Belgium
Current Conditions -  °F | °C
As of 2:50 PM on Monday 20 Oct 2014 (Local Time) from EBOS Reporting Station
Few Clouds Few Clouds  
Wind Chill: 63°   Ceiling: Unl
Heat Index: 63°   Visibility: 6mi
Dew Point: 52°   Wind: 17mph
Humidity: 68%   Direction: 260°W
Pressure: 30.03"   Gusts: NA
Location:  51.22°N, 2.91°E
Report Text: EBOS 201250Z 26015KT 9999 FEW022 17/11 Q1017 NOSIG
Loading
Personal Weather Stations






























Interactive Weather Map
Tropical Storm Tracking
New forecast layout! Learn more

10-Day Weather Forecast

Advertisements
Track Severe Weather on mobile